Terminal Aerodrome Forecast
Issued by NWS

Home | Current Version | Previous Version | Text Only | Print | Product List | Glossary On
Versions: 1 2 3 4 5 6 7 8 9 10 11 12 13 14 15 16 17 18 19 20 21 22 23 24 25 26 27 28 29 30 31 32 33 34 35 36 37 38 39 40 41 42 43 44 45 46 47 48
000
FTUS45 KBOU 290422 AAA
TAFBJC
TAF AMD
KBJC 290422Z 2904/2924 11007KT P6SM FEW090
     FM290500 01012G20KT P6SM SCT050 BKN080
     FM290700 03010KT P6SM SCT035 BKN050 OVC070
     FM291600 12005KT P6SM SCT050 BKN100
     FM292300 14008KT P6SM SCT040 SCT080=

USA.gov is the U.S. government's official web portal to all federal, state and local government web resources and services.